sensor_id;sensor_type;location;lat;lon;timestamp;P1;durP1;ratioP1;P2;durP2;ratioP2
2558;SDS011;1289;53.488;10.006;2023-07-13T00:01:26;9.13;;;4.60;;
2558;SDS011;1289;53.488;10.006;2023-07-13T00:03:52;5.50;;;5.10;;
2558;SDS011;1289;53.488;10.006;2023-07-13T00:06:19;7.27;;;4.87;;
2558;SDS011;1289;53.488;10.006;2023-07-13T00:08:47;6.57;;;4.80;;
2558;SDS011;1289;53.488;10.006;2023-07-13T00:11:15;5.07;;;4.27;;
2558;SDS011;1289;53.488;10.006;2023-07-13T00:13:42;7.50;;;4.40;;
2558;SDS011;1289;53.488;10.006;2023-07-13T00:16:10;7.83;;;4.97;;
2558;SDS011;1289;53.488;10.006;2023-07-13T00:18:38;5.37;;;4.83;;
2558;SDS011;1289;53.488;10.006;2023-07-13T00:21:05;4.70;;;4.30;;
2558;SDS011;1289;53.488;10.006;2023-07-13T00:23:32;4.47;;;4.03;;
2558;SDS011;1289;53.488;10.006;2023-07-13T00:26:01;6.93;;;4.63;;
2558;SDS011;1289;53.488;10.006;2023-07-13T00:28:28;4.60;;;4.20;;
2558;SDS011;1289;53.488;10.006;2023-07-13T00:30:55;4.97;;;4.17;;
2558;SDS011;1289;53.488;10.006;2023-07-13T00:33:21;4.53;;;4.10;;
2558;SDS011;1289;53.488;10.006;2023-07-13T00:35:49;9.30;;;4.57;;
2558;SDS011;1289;53.488;10.006;2023-07-13T00:38:16;4.53;;;4.13;;
2558;SDS011;1289;53.488;10.006;2023-07-13T00:40:42;4.73;;;4.33;;
2558;SDS011;1289;53.488;10.006;2023-07-13T00:43:12;7.00;;;4.70;;
2558;SDS011;1289;53.488;10.006;2023-07-13T00:48:35;4.37;;;3.97;;
2558;SDS011;1289;53.488;10.006;2023-07-13T00:51:03;4.63;;;4.20;;
2558;SDS011;1289;53.488;10.006;2023-07-13T00:53:30;4.97;;;4.27;;
2558;SDS011;1289;53.488;10.006;2023-07-13T00:55:57;4.60;;;4.20;;
2558;SDS011;1289;53.488;10.006;2023-07-13T00:58:25;4.60;;;4.30;;
2558;SDS011;1289;53.488;10.006;2023-07-13T01:00:52;4.77;;;4.33;;
2558;SDS011;1289;53.488;10.006;2023-07-13T01:03:19;4.53;;;4.13;;
2558;SDS011;1289;53.488;10.006;2023-07-13T01:05:46;5.00;;;4.33;;
2558;SDS011;1289;53.488;10.006;2023-07-13T01:08:14;4.70;;;4.30;;
2558;SDS011;1289;53.488;10.006;2023-07-13T01:10:40;5.37;;;4.10;;
2558;SDS011;1289;53.488;10.006;2023-07-13T01:13:08;5.07;;;4.57;;
2558;SDS011;1289;53.488;10.006;2023-07-13T01:15:38;4.77;;;4.37;;
2558;SDS011;1289;53.488;10.006;2023-07-13T01:18:07;5.03;;;4.60;;
2558;SDS011;1289;53.488;10.006;2023-07-13T01:20:34;6.50;;;5.27;;
2558;SDS011;1289;53.488;10.006;2023-07-13T01:23:04;6.50;;;5.67;;
2558;SDS011;1289;53.488;10.006;2023-07-13T01:25:31;8.13;;;5.70;;
2558;SDS011;1289;53.488;10.006;2023-07-13T01:27:58;6.13;;;5.50;;
2558;SDS011;1289;53.488;10.006;2023-07-13T01:30:25;5.70;;;5.17;;
2558;SDS011;1289;53.488;10.006;2023-07-13T01:32:51;5.73;;;5.30;;
2558;SDS011;1289;53.488;10.006;2023-07-13T01:35:18;6.30;;;5.70;;
2558;SDS011;1289;53.488;10.006;2023-07-13T01:37:44;6.33;;;5.43;;
2558;SDS011;1289;53.488;10.006;2023-07-13T01:40:12;6.40;;;5.80;;
2558;SDS011;1289;53.488;10.006;2023-07-13T01:42:39;6.57;;;5.93;;
2558;SDS011;1289;53.488;10.006;2023-07-13T01:45:06;7.47;;;6.90;;
2558;SDS011;1289;53.488;10.006;2023-07-13T01:47:33;7.23;;;5.57;;
2558;SDS011;1289;53.488;10.006;2023-07-13T01:50:00;6.93;;;6.33;;
2558;SDS011;1289;53.488;10.006;2023-07-13T01:52:26;6.00;;;5.47;;
2558;SDS011;1289;53.488;10.006;2023-07-13T01:54:53;7.53;;;6.93;;
2558;SDS011;1289;53.488;10.006;2023-07-13T01:57:21;6.70;;;6.10;;
2558;SDS011;1289;53.488;10.006;2023-07-13T01:59:47;8.10;;;7.40;;
2558;SDS011;1289;53.488;10.006;2023-07-13T02:02:14;7.67;;;6.93;;
2558;SDS011;1289;53.488;10.006;2023-07-13T02:04:40;7.53;;;6.93;;
2558;SDS011;1289;53.488;10.006;2023-07-13T02:07:07;6.97;;;6.33;;
2558;SDS011;1289;53.488;10.006;2023-07-13T02:09:35;7.73;;;6.93;;
2558;SDS011;1289;53.488;10.006;2023-07-13T02:12:01;7.27;;;6.40;;
2558;SDS011;1289;53.488;10.006;2023-07-13T02:14:33;7.97;;;7.27;;
2558;SDS011;1289;53.488;10.006;2023-07-13T02:17:00;8.67;;;7.23;;
2558;SDS011;1289;53.488;10.006;2023-07-13T02:19:27;8.27;;;7.57;;
2558;SDS011;1289;53.488;10.006;2023-07-13T02:21:53;7.83;;;7.07;;
2558;SDS011;1289;53.488;10.006;2023-07-13T02:24:20;8.20;;;7.47;;
2558;SDS011;1289;53.488;10.006;2023-07-13T02:26:46;9.17;;;8.03;;
2558;SDS011;1289;53.488;10.006;2023-07-13T02:29:13;7.43;;;6.67;;
2558;SDS011;1289;53.488;10.006;2023-07-13T02:31:41;10.57;;;7.90;;
2558;SDS011;1289;53.488;10.006;2023-07-13T02:34:08;7.93;;;7.23;;
2558;SDS011;1289;53.488;10.006;2023-07-13T02:36:35;12.50;;;8.20;;
2558;SDS011;1289;53.488;10.006;2023-07-13T02:39:03;8.33;;;7.63;;
2558;SDS011;1289;53.488;10.006;2023-07-13T02:41:34;8.70;;;7.80;;
2558;SDS011;1289;53.488;10.006;2023-07-13T02:44:02;8.87;;;8.10;;
2558;SDS011;1289;53.488;10.006;2023-07-13T02:46:29;9.07;;;8.10;;
2558;SDS011;1289;53.488;10.006;2023-07-13T02:48:57;8.73;;;8.03;;
2558;SDS011;1289;53.488;10.006;2023-07-13T02:51:23;8.80;;;8.00;;
2558;SDS011;1289;53.488;10.006;2023-07-13T02:53:50;9.80;;;7.57;;
2558;SDS011;1289;53.488;10.006;2023-07-13T02:56:17;8.30;;;7.70;;
2558;SDS011;1289;53.488;10.006;2023-07-13T02:58:45;8.60;;;7.80;;
2558;SDS011;1289;53.488;10.006;2023-07-13T03:01:11;7.70;;;7.07;;
2558;SDS011;1289;53.488;10.006;2023-07-13T03:03:44;7.70;;;7.03;;
2558;SDS011;1289;53.488;10.006;2023-07-13T03:06:13;7.63;;;7.07;;
2558;SDS011;1289;53.488;10.006;2023-07-13T03:08:46;7.80;;;7.20;;
2558;SDS011;1289;53.488;10.006;2023-07-13T03:11:15;8.70;;;7.37;;
2558;SDS011;1289;53.488;10.006;2023-07-13T03:13:44;8.17;;;7.40;;
2558;SDS011;1289;53.488;10.006;2023-07-13T03:16:12;7.33;;;6.70;;
2558;SDS011;1289;53.488;10.006;2023-07-13T03:18:41;7.90;;;7.20;;
2558;SDS011;1289;53.488;10.006;2023-07-13T03:21:10;8.50;;;7.70;;
2558;SDS011;1289;53.488;10.006;2023-07-13T03:23:40;9.40;;;7.53;;
2558;SDS011;1289;53.488;10.006;2023-07-13T03:26:07;11.00;;;8.87;;
2558;SDS011;1289;53.488;10.006;2023-07-13T03:28:35;8.50;;;7.70;;
2558;SDS011;1289;53.488;10.006;2023-07-13T03:31:05;8.43;;;7.63;;
2558;SDS011;1289;53.488;10.006;2023-07-13T03:33:33;9.80;;;8.50;;
2558;SDS011;1289;53.488;10.006;2023-07-13T03:36:01;9.07;;;8.17;;
2558;SDS011;1289;53.488;10.006;2023-07-13T03:38:29;8.23;;;7.43;;
2558;SDS011;1289;53.488;10.006;2023-07-13T03:40:57;9.03;;;8.07;;
2558;SDS011;1289;53.488;10.006;2023-07-13T03:43:22;8.63;;;7.80;;
2558;SDS011;1289;53.488;10.006;2023-07-13T03:45:50;8.63;;;7.83;;
2558;SDS011;1289;53.488;10.006;2023-07-13T03:48:17;9.30;;;8.50;;
2558;SDS011;1289;53.488;10.006;2023-07-13T03:50:43;9.37;;;8.50;;
2558;SDS011;1289;53.488;10.006;2023-07-13T03:53:10;9.10;;;8.20;;
2558;SDS011;1289;53.488;10.006;2023-07-13T03:55:37;10.13;;;8.90;;
2558;SDS011;1289;53.488;10.006;2023-07-13T04:00:58;8.97;;;8.17;;
2558;SDS011;1289;53.488;10.006;2023-07-13T04:03:26;8.63;;;7.67;;
2558;SDS011;1289;53.488;10.006;2023-07-13T04:05:53;9.37;;;8.40;;
2558;SDS011;1289;53.488;10.006;2023-07-13T04:08:24;10.30;;;9.30;;
2558;SDS011;1289;53.488;10.006;2023-07-13T04:10:52;9.60;;;8.40;;
2558;SDS011;1289;53.488;10.006;2023-07-13T04:13:18;9.50;;;8.20;;
2558;SDS011;1289;53.488;10.006;2023-07-13T04:15:46;9.73;;;8.83;;
2558;SDS011;1289;53.488;10.006;2023-07-13T04:18:13;8.03;;;7.30;;
2558;SDS011;1289;53.488;10.006;2023-07-13T04:20:39;11.10;;;7.20;;
2558;SDS011;1289;53.488;10.006;2023-07-13T04:23:06;8.53;;;7.67;;
2558;SDS011;1289;53.488;10.006;2023-07-13T04:25:33;8.80;;;7.90;;
2558;SDS011;1289;53.488;10.006;2023-07-13T04:28:00;9.30;;;8.40;;
2558;SDS011;1289;53.488;10.006;2023-07-13T04:30:26;9.30;;;7.60;;
2558;SDS011;1289;53.488;10.006;2023-07-13T04:32:54;8.10;;;7.50;;
2558;SDS011;1289;53.488;10.006;2023-07-13T04:35:21;13.23;;;8.67;;
2558;SDS011;1289;53.488;10.006;2023-07-13T04:37:48;8.33;;;7.53;;
2558;SDS011;1289;53.488;10.006;2023-07-13T04:40:15;10.20;;;6.17;;
2558;SDS011;1289;53.488;10.006;2023-07-13T04:42:42;8.00;;;7.03;;
2558;SDS011;1289;53.488;10.006;2023-07-13T04:45:10;8.40;;;7.80;;
2558;SDS011;1289;53.488;10.006;2023-07-13T04:47:37;9.80;;;7.43;;
2558;SDS011;1289;53.488;10.006;2023-07-13T04:50:05;11.30;;;8.33;;
2558;SDS011;1289;53.488;10.006;2023-07-13T04:52:32;7.83;;;7.03;;
2558;SDS011;1289;53.488;10.006;2023-07-13T04:54:59;7.73;;;6.90;;
2558;SDS011;1289;53.488;10.006;2023-07-13T04:57:26;8.30;;;6.40;;
2558;SDS011;1289;53.488;10.006;2023-07-13T04:59:52;8.10;;;7.33;;
2558;SDS011;1289;53.488;10.006;2023-07-13T05:02:20;7.77;;;7.07;;
2558;SDS011;1289;53.488;10.006;2023-07-13T05:04:46;7.57;;;6.87;;
2558;SDS011;1289;53.488;10.006;2023-07-13T05:07:14;8.07;;;7.27;;
2558;SDS011;1289;53.488;10.006;2023-07-13T05:09:41;6.07;;;5.57;;
2558;SDS011;1289;53.488;10.006;2023-07-13T05:12:08;7.00;;;5.53;;
2558;SDS011;1289;53.488;10.006;2023-07-13T05:14:35;6.57;;;5.97;;
2558;SDS011;1289;53.488;10.006;2023-07-13T05:17:02;6.37;;;5.30;;
2558;SDS011;1289;53.488;10.006;2023-07-13T05:19:29;5.97;;;5.27;;
2558;SDS011;1289;53.488;10.006;2023-07-13T05:21:56;5.60;;;5.00;;
2558;SDS011;1289;53.488;10.006;2023-07-13T05:24:24;10.20;;;5.80;;
2558;SDS011;1289;53.488;10.006;2023-07-13T05:26:51;8.10;;;5.00;;
2558;SDS011;1289;53.488;10.006;2023-07-13T05:29:19;7.67;;;5.27;;
2558;SDS011;1289;53.488;10.006;2023-07-13T05:31:45;8.20;;;5.77;;
2558;SDS011;1289;53.488;10.006;2023-07-13T05:34:12;8.93;;;6.03;;
2558;SDS011;1289;53.488;10.006;2023-07-13T05:36:39;8.70;;;4.87;;
2558;SDS011;1289;53.488;10.006;2023-07-13T05:39:06;8.03;;;5.63;;
2558;SDS011;1289;53.488;10.006;2023-07-13T05:41:34;6.63;;;4.77;;
2558;SDS011;1289;53.488;10.006;2023-07-13T05:44:02;7.20;;;5.87;;
2558;SDS011;1289;53.488;10.006;2023-07-13T05:46:29;8.63;;;5.73;;
2558;SDS011;1289;53.488;10.006;2023-07-13T05:48:56;7.70;;;5.53;;
2558;SDS011;1289;53.488;10.006;2023-07-13T05:51:22;6.23;;;5.33;;
2558;SDS011;1289;53.488;10.006;2023-07-13T05:53:49;7.83;;;5.60;;
2558;SDS011;1289;53.488;10.006;2023-07-13T05:56:16;6.30;;;5.73;;
2558;SDS011;1289;53.488;10.006;2023-07-13T05:58:44;5.63;;;5.00;;
2558;SDS011;1289;53.488;10.006;2023-07-13T06:01:11;6.00;;;5.43;;
2558;SDS011;1289;53.488;10.006;2023-07-13T06:03:39;15.23;;;6.10;;
2558;SDS011;1289;53.488;10.006;2023-07-13T06:06:06;6.13;;;5.20;;
2558;SDS011;1289;53.488;10.006;2023-07-13T06:08:33;7.50;;;5.37;;
2558;SDS011;1289;53.488;10.006;2023-07-13T06:11:03;13.63;;;6.60;;
2558;SDS011;1289;53.488;10.006;2023-07-13T06:13:31;13.03;;;4.93;;
2558;SDS011;1289;53.488;10.006;2023-07-13T06:15:59;9.40;;;5.60;;
2558;SDS011;1289;53.488;10.006;2023-07-13T06:18:29;7.33;;;4.90;;
2558;SDS011;1289;53.488;10.006;2023-07-13T06:20:55;9.23;;;5.07;;
2558;SDS011;1289;53.488;10.006;2023-07-13T06:23:22;7.73;;;5.23;;
2558;SDS011;1289;53.488;10.006;2023-07-13T06:25:49;10.60;;;5.13;;
2558;SDS011;1289;53.488;10.006;2023-07-13T06:28:15;7.87;;;5.80;;
2558;SDS011;1289;53.488;10.006;2023-07-13T06:30:42;6.43;;;4.70;;
2558;SDS011;1289;53.488;10.006;2023-07-13T06:33:10;8.40;;;5.03;;
2558;SDS011;1289;53.488;10.006;2023-07-13T06:35:36;6.50;;;4.83;;
2558;SDS011;1289;53.488;10.006;2023-07-13T06:38:03;12.00;;;4.87;;
2558;SDS011;1289;53.488;10.006;2023-07-13T06:40:30;6.13;;;5.43;;
2558;SDS011;1289;53.488;10.006;2023-07-13T06:42:56;9.37;;;5.20;;
2558;SDS011;1289;53.488;10.006;2023-07-13T06:45:23;13.30;;;5.83;;
2558;SDS011;1289;53.488;10.006;2023-07-13T06:47:49;10.17;;;5.03;;
2558;SDS011;1289;53.488;10.006;2023-07-13T06:50:17;7.90;;;5.00;;
2558;SDS011;1289;53.488;10.006;2023-07-13T06:52:44;6.60;;;4.43;;
2558;SDS011;1289;53.488;10.006;2023-07-13T06:55:11;7.37;;;4.60;;
2558;SDS011;1289;53.488;10.006;2023-07-13T06:57:37;7.50;;;4.90;;
2558;SDS011;1289;53.488;10.006;2023-07-13T07:00:04;8.90;;;4.60;;
2558;SDS011;1289;53.488;10.006;2023-07-13T07:02:35;8.47;;;4.60;;
2558;SDS011;1289;53.488;10.006;2023-07-13T07:05:01;12.77;;;4.93;;
2558;SDS011;1289;53.488;10.006;2023-07-13T07:07:29;6.73;;;4.80;;
2558;SDS011;1289;53.488;10.006;2023-07-13T07:09:56;7.60;;;5.97;;
2558;SDS011;1289;53.488;10.006;2023-07-13T07:12:22;7.60;;;4.60;;
2558;SDS011;1289;53.488;10.006;2023-07-13T07:14:49;6.40;;;4.50;;
2558;SDS011;1289;53.488;10.006;2023-07-13T07:17:15;6.33;;;4.37;;
2558;SDS011;1289;53.488;10.006;2023-07-13T07:19:42;9.40;;;5.10;;
2558;SDS011;1289;53.488;10.006;2023-07-13T07:22:09;10.00;;;5.70;;
2558;SDS011;1289;53.488;10.006;2023-07-13T07:24:36;8.23;;;4.80;;
2558;SDS011;1289;53.488;10.006;2023-07-13T07:27:03;8.90;;;4.37;;
2558;SDS011;1289;53.488;10.006;2023-07-13T07:29:30;10.23;;;4.70;;
2558;SDS011;1289;53.488;10.006;2023-07-13T07:31:58;7.33;;;4.47;;
2558;SDS011;1289;53.488;10.006;2023-07-13T07:34:24;8.73;;;4.50;;
2558;SDS011;1289;53.488;10.006;2023-07-13T07:36:51;5.83;;;4.33;;
2558;SDS011;1289;53.488;10.006;2023-07-13T07:39:19;9.20;;;4.27;;
2558;SDS011;1289;53.488;10.006;2023-07-13T07:41:47;10.53;;;5.13;;
2558;SDS011;1289;53.488;10.006;2023-07-13T07:44:13;5.17;;;4.30;;
2558;SDS011;1289;53.488;10.006;2023-07-13T07:46:40;7.67;;;4.40;;
2558;SDS011;1289;53.488;10.006;2023-07-13T07:49:06;7.70;;;4.40;;
2558;SDS011;1289;53.488;10.006;2023-07-13T07:51:33;7.50;;;4.57;;
2558;SDS011;1289;53.488;10.006;2023-07-13T07:53:59;8.67;;;4.73;;
2558;SDS011;1289;53.488;10.006;2023-07-13T07:56:26;6.57;;;4.27;;
2558;SDS011;1289;53.488;10.006;2023-07-13T07:58:54;6.57;;;4.67;;
2558;SDS011;1289;53.488;10.006;2023-07-13T08:01:21;9.43;;;5.30;;
2558;SDS011;1289;53.488;10.006;2023-07-13T08:03:47;7.57;;;3.87;;
2558;SDS011;1289;53.488;10.006;2023-07-13T08:06:14;10.20;;;5.20;;
2558;SDS011;1289;53.488;10.006;2023-07-13T08:08:40;7.67;;;4.57;;
2558;SDS011;1289;53.488;10.006;2023-07-13T08:11:07;8.60;;;4.80;;
2558;SDS011;1289;53.488;10.006;2023-07-13T08:13:34;9.67;;;4.83;;
2558;SDS011;1289;53.488;10.006;2023-07-13T08:16:03;7.00;;;4.63;;
2558;SDS011;1289;53.488;10.006;2023-07-13T08:18:30;5.70;;;4.43;;
2558;SDS011;1289;53.488;10.006;2023-07-13T08:20:57;5.97;;;4.50;;
2558;SDS011;1289;53.488;10.006;2023-07-13T08:23:24;5.10;;;4.37;;
2558;SDS011;1289;53.488;10.006;2023-07-13T08:25:50;7.83;;;5.90;;
2558;SDS011;1289;53.488;10.006;2023-07-13T08:28:19;5.20;;;4.70;;
2558;SDS011;1289;53.488;10.006;2023-07-13T08:30:45;9.10;;;4.07;;
2558;SDS011;1289;53.488;10.006;2023-07-13T08:33:15;8.00;;;4.40;;
2558;SDS011;1289;53.488;10.006;2023-07-13T08:35:41;4.60;;;3.97;;
2558;SDS011;1289;53.488;10.006;2023-07-13T08:38:08;8.67;;;4.60;;
2558;SDS011;1289;53.488;10.006;2023-07-13T08:40:35;5.77;;;4.33;;
2558;SDS011;1289;53.488;10.006;2023-07-13T08:43:01;9.63;;;4.70;;
2558;SDS011;1289;53.488;10.006;2023-07-13T08:45:28;5.50;;;4.00;;
2558;SDS011;1289;53.488;10.006;2023-07-13T08:47:58;8.70;;;4.90;;
2558;SDS011;1289;53.488;10.006;2023-07-13T08:50:30;6.93;;;4.73;;
2558;SDS011;1289;53.488;10.006;2023-07-13T08:52:59;14.57;;;5.90;;
2558;SDS011;1289;53.488;10.006;2023-07-13T08:55:27;5.20;;;3.90;;
2558;SDS011;1289;53.488;10.006;2023-07-13T08:57:59;6.13;;;4.30;;
2558;SDS011;1289;53.488;10.006;2023-07-13T09:03:15;6.63;;;4.80;;
2558;SDS011;1289;53.488;10.006;2023-07-13T09:05:47;8.30;;;5.20;;
2558;SDS011;1289;53.488;10.006;2023-07-13T09:08:22;8.20;;;4.40;;
2558;SDS011;1289;53.488;10.006;2023-07-13T09:10:58;7.17;;;5.10;;
2558;SDS011;1289;53.488;10.006;2023-07-13T09:13:30;7.63;;;5.10;;
2558;SDS011;1289;53.488;10.006;2023-07-13T09:15:59;10.37;;;5.10;;
2558;SDS011;1289;53.488;10.006;2023-07-13T09:18:27;10.07;;;4.93;;
2558;SDS011;1289;53.488;10.006;2023-07-13T09:20:57;8.97;;;5.90;;
2558;SDS011;1289;53.488;10.006;2023-07-13T09:23:27;5.50;;;5.00;;
2558;SDS011;1289;53.488;10.006;2023-07-13T09:26:04;8.13;;;5.03;;
2558;SDS011;1289;53.488;10.006;2023-07-13T09:28:34;8.13;;;5.73;;
2558;SDS011;1289;53.488;10.006;2023-07-13T09:31:04;8.53;;;5.17;;
2558;SDS011;1289;53.488;10.006;2023-07-13T09:33:33;5.80;;;5.30;;
2558;SDS011;1289;53.488;10.006;2023-07-13T09:36:03;7.87;;;6.33;;
2558;SDS011;1289;53.488;10.006;2023-07-13T09:38:42;8.23;;;5.40;;
2558;SDS011;1289;53.488;10.006;2023-07-13T09:41:19;9.97;;;5.10;;
2558;SDS011;1289;53.488;10.006;2023-07-13T09:44:01;6.00;;;5.40;;
2558;SDS011;1289;53.488;10.006;2023-07-13T09:46:34;6.53;;;5.20;;
2558;SDS011;1289;53.488;10.006;2023-07-13T09:49:00;6.53;;;5.87;;
2558;SDS011;1289;53.488;10.006;2023-07-13T09:51:28;6.13;;;5.13;;
2558;SDS011;1289;53.488;10.006;2023-07-13T09:53:55;5.73;;;4.93;;
2558;SDS011;1289;53.488;10.006;2023-07-13T09:56:23;5.90;;;5.10;;
2558;SDS011;1289;53.488;10.006;2023-07-13T09:58:52;6.70;;;5.23;;
2558;SDS011;1289;53.488;10.006;2023-07-13T10:01:30;7.53;;;4.90;;
2558;SDS011;1289;53.488;10.006;2023-07-13T10:03:58;8.73;;;5.60;;
2558;SDS011;1289;53.488;10.006;2023-07-13T10:06:25;5.83;;;4.83;;
2558;SDS011;1289;53.488;10.006;2023-07-13T10:08:55;7.60;;;4.70;;
2558;SDS011;1289;53.488;10.006;2023-07-13T10:11:23;6.40;;;4.67;;
2558;SDS011;1289;53.488;10.006;2023-07-13T10:13:51;5.43;;;5.00;;
2558;SDS011;1289;53.488;10.006;2023-07-13T10:16:19;6.23;;;5.60;;
2558;SDS011;1289;53.488;10.006;2023-07-13T10:18:46;6.27;;;4.90;;
2558;SDS011;1289;53.488;10.006;2023-07-13T10:21:17;4.53;;;4.13;;
2558;SDS011;1289;53.488;10.006;2023-07-13T10:23:45;4.10;;;3.80;;
2558;SDS011;1289;53.488;10.006;2023-07-13T10:26:18;5.37;;;4.60;;
2558;SDS011;1289;53.488;10.006;2023-07-13T10:28:48;7.00;;;4.90;;
2558;SDS011;1289;53.488;10.006;2023-07-13T10:31:18;7.27;;;4.00;;
2558;SDS011;1289;53.488;10.006;2023-07-13T10:33:45;5.47;;;4.10;;
2558;SDS011;1289;53.488;10.006;2023-07-13T10:36:13;11.10;;;4.13;;
2558;SDS011;1289;53.488;10.006;2023-07-13T10:38:43;14.10;;;4.20;;
2558;SDS011;1289;53.488;10.006;2023-07-13T10:41:11;4.07;;;3.67;;
2558;SDS011;1289;53.488;10.006;2023-07-13T10:43:43;4.53;;;3.80;;
2558;SDS011;1289;53.488;10.006;2023-07-13T10:46:12;6.70;;;4.10;;
2558;SDS011;1289;53.488;10.006;2023-07-13T10:48:40;8.37;;;4.07;;
2558;SDS011;1289;53.488;10.006;2023-07-13T10:51:09;6.77;;;3.93;;
2558;SDS011;1289;53.488;10.006;2023-07-13T10:53:37;4.80;;;4.30;;
2558;SDS011;1289;53.488;10.006;2023-07-13T10:56:10;5.03;;;3.70;;
2558;SDS011;1289;53.488;10.006;2023-07-13T10:58:47;5.40;;;4.23;;
2558;SDS011;1289;53.488;10.006;2023-07-13T11:01:38;5.60;;;3.80;;
2558;SDS011;1289;53.488;10.006;2023-07-13T11:04:08;4.00;;;3.60;;
2558;SDS011;1289;53.488;10.006;2023-07-13T11:06:38;7.63;;;3.80;;
2558;SDS011;1289;53.488;10.006;2023-07-13T11:09:17;7.80;;;3.13;;
2558;SDS011;1289;53.488;10.006;2023-07-13T11:11:46;10.63;;;4.80;;
2558;SDS011;1289;53.488;10.006;2023-07-13T11:20:09;3.57;;;3.27;;
2558;SDS011;1289;53.488;10.006;2023-07-13T11:22:47;3.73;;;3.13;;
2558;SDS011;1289;53.488;10.006;2023-07-13T11:25:25;4.43;;;3.70;;
2558;SDS011;1289;53.488;10.006;2023-07-13T11:28:04;5.13;;;3.90;;
2558;SDS011;1289;53.488;10.006;2023-07-13T11:30:35;3.97;;;3.20;;
2558;SDS011;1289;53.488;10.006;2023-07-13T11:33:10;4.87;;;3.37;;
2558;SDS011;1289;53.488;10.006;2023-07-13T11:35:41;3.70;;;3.40;;
2558;SDS011;1289;53.488;10.006;2023-07-13T11:38:13;5.73;;;3.50;;
2558;SDS011;1289;53.488;10.006;2023-07-13T11:40:43;3.40;;;3.07;;
2558;SDS011;1289;53.488;10.006;2023-07-13T11:43:12;3.93;;;3.40;;
2558;SDS011;1289;53.488;10.006;2023-07-13T11:45:40;4.83;;;3.20;;
2558;SDS011;1289;53.488;10.006;2023-07-13T11:48:17;3.83;;;3.13;;
2558;SDS011;1289;53.488;10.006;2023-07-13T11:50:49;3.93;;;3.30;;
2558;SDS011;1289;53.488;10.006;2023-07-13T11:53:17;5.60;;;3.10;;
2558;SDS011;1289;53.488;10.006;2023-07-13T11:55:44;3.77;;;3.47;;
2558;SDS011;1289;53.488;10.006;2023-07-13T11:58:18;3.67;;;3.37;;
2558;SDS011;1289;53.488;10.006;2023-07-13T12:00:50;4.20;;;2.80;;
2558;SDS011;1289;53.488;10.006;2023-07-13T12:03:18;4.17;;;2.87;;
2558;SDS011;1289;53.488;10.006;2023-07-13T12:05:56;3.70;;;3.40;;
2558;SDS011;1289;53.488;10.006;2023-07-13T12:08:24;4.47;;;3.53;;
2558;SDS011;1289;53.488;10.006;2023-07-13T12:10:56;5.57;;;3.50;;
2558;SDS011;1289;53.488;10.006;2023-07-13T12:13:22;6.03;;;4.40;;
2558;SDS011;1289;53.488;10.006;2023-07-13T12:15:50;4.00;;;3.60;;
2558;SDS011;1289;53.488;10.006;2023-07-13T12:18:20;4.97;;;3.83;;
2558;SDS011;1289;53.488;10.006;2023-07-13T12:20:48;5.00;;;4.17;;
2558;SDS011;1289;53.488;10.006;2023-07-13T12:23:20;5.23;;;3.47;;
2558;SDS011;1289;53.488;10.006;2023-07-13T12:25:49;8.90;;;3.90;;
2558;SDS011;1289;53.488;10.006;2023-07-13T12:28:22;6.63;;;4.57;;
2558;SDS011;1289;53.488;10.006;2023-07-13T12:30:59;5.43;;;3.97;;
2558;SDS011;1289;53.488;10.006;2023-07-13T12:33:27;6.07;;;3.90;;
2558;SDS011;1289;53.488;10.006;2023-07-13T12:35:54;8.70;;;4.40;;
2558;SDS011;1289;53.488;10.006;2023-07-13T12:38:24;4.90;;;4.50;;
2558;SDS011;1289;53.488;10.006;2023-07-13T12:40:51;4.37;;;3.73;;
2558;SDS011;1289;53.488;10.006;2023-07-13T12:43:19;3.90;;;3.60;;
2558;SDS011;1289;53.488;10.006;2023-07-13T12:45:56;4.00;;;3.70;;
2558;SDS011;1289;53.488;10.006;2023-07-13T12:48:25;4.50;;;4.10;;
2558;SDS011;1289;53.488;10.006;2023-07-13T12:50:53;5.83;;;4.37;;
2558;SDS011;1289;53.488;10.006;2023-07-13T12:53:21;3.77;;;3.30;;
2558;SDS011;1289;53.488;10.006;2023-07-13T12:55:50;3.67;;;3.37;;
2558;SDS011;1289;53.488;10.006;2023-07-13T12:58:21;10.90;;;4.50;;
2558;SDS011;1289;53.488;10.006;2023-07-13T13:00:50;6.47;;;3.83;;
2558;SDS011;1289;53.488;10.006;2023-07-13T13:03:23;4.87;;;3.77;;
2558;SDS011;1289;53.488;10.006;2023-07-13T13:05:59;5.57;;;3.87;;
2558;SDS011;1289;53.488;10.006;2023-07-13T13:08:28;4.03;;;3.50;;
2558;SDS011;1289;53.488;10.006;2023-07-13T13:10:55;4.03;;;3.63;;
2558;SDS011;1289;53.488;10.006;2023-07-13T13:13:22;4.30;;;3.87;;
2558;SDS011;1289;53.488;10.006;2023-07-13T13:15:49;5.50;;;4.27;;
2558;SDS011;1289;53.488;10.006;2023-07-13T13:18:16;4.57;;;3.43;;
2558;SDS011;1289;53.488;10.006;2023-07-13T13:20:45;4.23;;;3.77;;
2558;SDS011;1289;53.488;10.006;2023-07-13T13:23:12;4.80;;;4.40;;
2558;SDS011;1289;53.488;10.006;2023-07-13T13:25:42;5.30;;;3.50;;
2558;SDS011;1289;53.488;10.006;2023-07-13T13:28:12;4.60;;;3.83;;
2558;SDS011;1289;53.488;10.006;2023-07-13T13:30:40;7.30;;;4.10;;
2558;SDS011;1289;53.488;10.006;2023-07-13T13:33:08;4.10;;;3.70;;
2558;SDS011;1289;53.488;10.006;2023-07-13T13:35:36;4.53;;;3.83;;
2558;SDS011;1289;53.488;10.006;2023-07-13T13:38:07;4.73;;;4.33;;
2558;SDS011;1289;53.488;10.006;2023-07-13T13:40:36;4.00;;;3.70;;
2558;SDS011;1289;53.488;10.006;2023-07-13T13:43:04;4.80;;;3.47;;
2558;SDS011;1289;53.488;10.006;2023-07-13T13:45:34;5.73;;;3.60;;
2558;SDS011;1289;53.488;10.006;2023-07-13T13:48:01;3.70;;;3.40;;
2558;SDS011;1289;53.488;10.006;2023-07-13T13:50:28;3.93;;;3.63;;
2558;SDS011;1289;53.488;10.006;2023-07-13T13:52:54;3.93;;;3.53;;
2558;SDS011;1289;53.488;10.006;2023-07-13T13:55:22;9.37;;;3.90;;
2558;SDS011;1289;53.488;10.006;2023-07-13T13:57:49;4.00;;;3.60;;
2558;SDS011;1289;53.488;10.006;2023-07-13T14:00:16;4.50;;;3.80;;
2558;SDS011;1289;53.488;10.006;2023-07-13T14:02:44;5.30;;;4.10;;
2558;SDS011;1289;53.488;10.006;2023-07-13T14:05:13;4.90;;;4.37;;
2558;SDS011;1289;53.488;10.006;2023-07-13T14:07:41;6.70;;;3.80;;
2558;SDS011;1289;53.488;10.006;2023-07-13T14:10:10;4.20;;;3.90;;
2558;SDS011;1289;53.488;10.006;2023-07-13T14:12:39;4.63;;;3.97;;
2558;SDS011;1289;53.488;10.006;2023-07-13T14:15:08;3.90;;;3.60;;
2558;SDS011;1289;53.488;10.006;2023-07-13T14:17:41;4.70;;;4.13;;
2558;SDS011;1289;53.488;10.006;2023-07-13T14:20:09;4.00;;;3.70;;
2558;SDS011;1289;53.488;10.006;2023-07-13T14:22:36;3.87;;;3.57;;
2558;SDS011;1289;53.488;10.006;2023-07-13T14:25:03;4.70;;;3.80;;
2558;SDS011;1289;53.488;10.006;2023-07-13T14:27:31;4.13;;;3.70;;
2558;SDS011;1289;53.488;10.006;2023-07-13T14:29:58;4.73;;;3.60;;
2558;SDS011;1289;53.488;10.006;2023-07-13T14:32:25;3.80;;;3.30;;
2558;SDS011;1289;53.488;10.006;2023-07-13T14:34:52;3.80;;;3.50;;
2558;SDS011;1289;53.488;10.006;2023-07-13T14:37:18;5.60;;;4.07;;
2558;SDS011;1289;53.488;10.006;2023-07-13T14:39:45;4.07;;;3.67;;
2558;SDS011;1289;53.488;10.006;2023-07-13T14:42:14;5.10;;;3.80;;
2558;SDS011;1289;53.488;10.006;2023-07-13T14:44:40;4.37;;;3.93;;
2558;SDS011;1289;53.488;10.006;2023-07-13T14:47:08;3.90;;;3.50;;
2558;SDS011;1289;53.488;10.006;2023-07-13T14:49:37;4.50;;;4.10;;
2558;SDS011;1289;53.488;10.006;2023-07-13T14:52:08;4.07;;;3.10;;
2558;SDS011;1289;53.488;10.006;2023-07-13T14:54:37;3.77;;;3.47;;
2558;SDS011;1289;53.488;10.006;2023-07-13T14:57:08;5.43;;;3.70;;
2558;SDS011;1289;53.488;10.006;2023-07-13T14:59:35;7.57;;;3.97;;
2558;SDS011;1289;53.488;10.006;2023-07-13T15:02:02;6.93;;;4.20;;
2558;SDS011;1289;53.488;10.006;2023-07-13T15:04:30;8.63;;;4.60;;
2558;SDS011;1289;53.488;10.006;2023-07-13T15:06:57;3.90;;;3.60;;
2558;SDS011;1289;53.488;10.006;2023-07-13T15:09:25;4.90;;;4.40;;
2558;SDS011;1289;53.488;10.006;2023-07-13T15:11:52;5.47;;;3.93;;
2558;SDS011;1289;53.488;10.006;2023-07-13T15:14:18;4.83;;;3.83;;
2558;SDS011;1289;53.488;10.006;2023-07-13T15:16:46;4.30;;;4.00;;
2558;SDS011;1289;53.488;10.006;2023-07-13T15:19:13;5.00;;;4.30;;
2558;SDS011;1289;53.488;10.006;2023-07-13T15:21:42;4.40;;;3.97;;